sensor_id;sensor_type;location;lat;lon;timestamp;pressure;altitude;pressure_sealevel;temperature;humidity
57000;BME280;42891;50.006;21.964;2023-02-16T00:00:31;99973.47;;;2.66;75.24
57000;BME280;42891;50.006;21.964;2023-02-16T00:04:32;99965.91;;;2.82;75.75
57000;BME280;42891;50.006;21.964;2023-02-16T00:08:32;99960.06;;;2.76;75.48
57000;BME280;42891;50.006;21.964;2023-02-16T00:12:32;99958.84;;;2.84;75.02
57000;BME280;42891;50.006;21.964;2023-02-16T00:17:02;99956.16;;;2.86;74.96
57000;BME280;42891;50.006;21.964;2023-02-16T00:21:03;99935.03;;;2.71;75.62
57000;BME280;42891;50.006;21.964;2023-02-16T00:25:04;99920.28;;;2.70;75.89
57000;BME280;42891;50.006;21.964;2023-02-16T00:29:04;99954.34;;;2.88;76.03
57000;BME280;42891;50.006;21.964;2023-02-16T00:33:13;99916.00;;;2.69;76.14
57000;BME280;42891;50.006;21.964;2023-02-16T00:37:14;99949.38;;;2.82;76.92
57000;BME280;42891;50.006;21.964;2023-02-16T00:41:17;99939.16;;;2.77;77.10
57000;BME280;42891;50.006;21.964;2023-02-16T00:45:37;99923.53;;;2.55;78.28
57000;BME280;42891;50.006;21.964;2023-02-16T00:49:37;99910.44;;;2.56;78.20
57000;BME280;42891;50.006;21.964;2023-02-16T00:53:37;99922.38;;;2.83;78.51
57000;BME280;42891;50.006;21.964;2023-02-16T00:57:42;99913.47;;;2.88;78.04
57000;BME280;42891;50.006;21.964;2023-02-16T01:01:43;99915.22;;;2.88;78.22
57000;BME280;42891;50.006;21.964;2023-02-16T01:05:44;99889.00;;;2.91;78.28
57000;BME280;42891;50.006;21.964;2023-02-16T01:09:44;99905.84;;;3.04;77.78
57000;BME280;42891;50.006;21.964;2023-02-16T01:14:04;99892.34;;;2.95;78.00
57000;BME280;42891;50.006;21.964;2023-02-16T01:18:05;99879.69;;;3.06;78.08
57000;BME280;42891;50.006;21.964;2023-02-16T01:22:05;99884.75;;;3.09;77.63
57000;BME280;42891;50.006;21.964;2023-02-16T01:26:11;99883.84;;;3.10;77.09
57000;BME280;42891;50.006;21.964;2023-02-16T01:30:16;99871.56;;;3.12;77.39
57000;BME280;42891;50.006;21.964;2023-02-16T01:34:16;99861.66;;;3.20;77.36
57000;BME280;42891;50.006;21.964;2023-02-16T01:38:23;99871.03;;;3.05;78.51
57000;BME280;42891;50.006;21.964;2023-02-16T01:42:37;99867.09;;;2.95;78.57
57000;BME280;42891;50.006;21.964;2023-02-16T01:46:58;99838.53;;;2.71;79.39
57000;BME280;42891;50.006;21.964;2023-02-16T01:51:11;99824.28;;;2.60;79.31
57000;BME280;42891;50.006;21.964;2023-02-16T01:55:20;99857.47;;;2.77;79.46
57000;BME280;42891;50.006;21.964;2023-02-16T02:03:38;99841.16;;;2.71;79.82
57000;BME280;42891;50.006;21.964;2023-02-16T02:08:20;99822.06;;;2.50;80.14
57000;BME280;42891;50.006;21.964;2023-02-16T02:12:34;99832.72;;;2.65;80.21
57000;BME280;42891;50.006;21.964;2023-02-16T02:16:38;99826.06;;;2.37;81.53
57000;BME280;42891;50.006;21.964;2023-02-16T02:39:06;99802.53;;;2.38;82.24
57000;BME280;42891;50.006;21.964;2023-02-16T02:43:22;99798.00;;;2.44;81.96
57000;BME280;42891;50.006;21.964;2023-02-16T02:47:40;99782.56;;;2.39;81.98
57000;BME280;42891;50.006;21.964;2023-02-16T02:51:40;99798.31;;;2.36;82.48
57000;BME280;42891;50.006;21.964;2023-02-16T02:55:46;99781.50;;;2.22;83.03
57000;BME280;42891;50.006;21.964;2023-02-16T03:00:09;99802.63;;;2.37;83.13
57000;BME280;42891;50.006;21.964;2023-02-16T03:04:31;99794.66;;;2.40;82.74
57000;BME280;42891;50.006;21.964;2023-02-16T03:08:34;99791.41;;;2.14;83.77
57000;BME280;42891;50.006;21.964;2023-02-16T03:12:35;99785.28;;;2.15;83.88
57000;BME280;42891;50.006;21.964;2023-02-16T03:16:47;99795.56;;;2.18;83.98
57000;BME280;42891;50.006;21.964;2023-02-16T03:20:48;99787.34;;;2.07;84.32
57000;BME280;42891;50.006;21.964;2023-02-16T03:25:07;99772.34;;;2.12;84.54
57000;BME280;42891;50.006;21.964;2023-02-16T03:29:26;99767.06;;;1.93;84.84
57000;BME280;42891;50.006;21.964;2023-02-16T03:33:27;99774.09;;;1.91;85.61
57000;BME280;42891;50.006;21.964;2023-02-16T03:37:28;99790.63;;;1.90;85.41
57000;BME280;42891;50.006;21.964;2023-02-16T03:41:49;99782.56;;;1.96;85.18
57000;BME280;42891;50.006;21.964;2023-02-16T03:45:50;99785.59;;;2.08;84.70
57000;BME280;42891;50.006;21.964;2023-02-16T03:49:50;99780.13;;;2.14;84.13
57000;BME280;42891;50.006;21.964;2023-02-16T03:53:51;99778.38;;;2.14;83.87
57000;BME280;42891;50.006;21.964;2023-02-16T03:57:51;99779.53;;;2.07;84.26
57000;BME280;42891;50.006;21.964;2023-02-16T04:01:51;99784.63;;;2.10;84.48
57000;BME280;42891;50.006;21.964;2023-02-16T04:05:52;99765.09;;;1.98;85.03
57000;BME280;42891;50.006;21.964;2023-02-16T04:09:52;99772.44;;;1.88;85.25
57000;BME280;42891;50.006;21.964;2023-02-16T04:13:52;99760.25;;;1.68;86.15
57000;BME280;42891;50.006;21.964;2023-02-16T04:17:53;99755.03;;;1.68;86.77
57000;BME280;42891;50.006;21.964;2023-02-16T04:21:54;99757.75;;;1.65;87.44
57000;BME280;42891;50.006;21.964;2023-02-16T04:25:54;99743.88;;;1.65;87.00
57000;BME280;42891;50.006;21.964;2023-02-16T04:29:55;99746.69;;;1.60;87.57
57000;BME280;42891;50.006;21.964;2023-02-16T04:33:55;99756.72;;;1.69;87.36
57000;BME280;42891;50.006;21.964;2023-02-16T04:37:55;99755.25;;;1.62;88.55
57000;BME280;42891;50.006;21.964;2023-02-16T04:41:55;99756.00;;;1.66;88.02
57000;BME280;42891;50.006;21.964;2023-02-16T04:45:56;99750.44;;;1.53;88.60
57000;BME280;42891;50.006;21.964;2023-02-16T04:49:56;99736.69;;;1.49;88.71
57000;BME280;42891;50.006;21.964;2023-02-16T04:53:56;99727.38;;;1.44;88.15
57000;BME280;42891;50.006;21.964;2023-02-16T04:57:57;99753.75;;;1.57;88.43
57000;BME280;42891;50.006;21.964;2023-02-16T05:01:57;99746.38;;;1.46;88.21
57000;BME280;42891;50.006;21.964;2023-02-16T05:05:57;99749.47;;;1.56;88.25
57000;BME280;42891;50.006;21.964;2023-02-16T05:09:57;99761.75;;;1.52;88.48
57000;BME280;42891;50.006;21.964;2023-02-16T05:13:58;99750.97;;;1.39;88.87
57000;BME280;42891;50.006;21.964;2023-02-16T05:18:17;99756.78;;;1.46;88.44
57000;BME280;42891;50.006;21.964;2023-02-16T05:22:18;99758.19;;;1.55;87.95
57000;BME280;42891;50.006;21.964;2023-02-16T05:26:19;99746.66;;;1.38;88.04
57000;BME280;42891;50.006;21.964;2023-02-16T05:30:19;99734.88;;;1.29;89.12
57000;BME280;42891;50.006;21.964;2023-02-16T05:34:20;99759.44;;;1.44;88.82
57000;BME280;42891;50.006;21.964;2023-02-16T05:38:20;99759.06;;;1.31;89.23
57000;BME280;42891;50.006;21.964;2023-02-16T05:42:20;99767.66;;;1.33;88.97
57000;BME280;42891;50.006;21.964;2023-02-16T05:46:22;99774.16;;;1.45;88.41
57000;BME280;42891;50.006;21.964;2023-02-16T05:50:23;99764.88;;;1.38;88.43
57000;BME280;42891;50.006;21.964;2023-02-16T05:54:23;99758.34;;;1.28;88.59
57000;BME280;42891;50.006;21.964;2023-02-16T05:58:23;99763.72;;;1.45;88.39
57000;BME280;42891;50.006;21.964;2023-02-16T06:02:24;99758.34;;;1.28;88.58
57000;BME280;42891;50.006;21.964;2023-02-16T06:06:24;99765.34;;;1.26;89.25
57000;BME280;42891;50.006;21.964;2023-02-16T06:10:24;99764.25;;;1.31;89.20
57000;BME280;42891;50.006;21.964;2023-02-16T06:14:25;99763.06;;;1.40;88.48
57000;BME280;42891;50.006;21.964;2023-02-16T06:18:26;99762.97;;;1.43;88.00
57000;BME280;42891;50.006;21.964;2023-02-16T06:22:26;99754.22;;;1.44;87.98
57000;BME280;42891;50.006;21.964;2023-02-16T06:26:27;99778.28;;;1.73;87.53
57000;BME280;42891;50.006;21.964;2023-02-16T06:30:28;99754.78;;;1.75;86.75
57000;BME280;42891;50.006;21.964;2023-02-16T06:34:28;99754.41;;;1.84;86.70
57000;BME280;42891;50.006;21.964;2023-02-16T06:38:28;99762.63;;;1.95;86.55
57000;BME280;42891;50.006;21.964;2023-02-16T06:42:28;99758.66;;;1.86;86.35
57000;BME280;42891;50.006;21.964;2023-02-16T06:46:29;99760.22;;;1.91;86.19
57000;BME280;42891;50.006;21.964;2023-02-16T06:50:30;99747.47;;;2.05;85.63
57000;BME280;42891;50.006;21.964;2023-02-16T06:54:30;99740.06;;;1.96;85.85
57000;BME280;42891;50.006;21.964;2023-02-16T06:58:30;99760.97;;;2.15;85.23
57000;BME280;42891;50.006;21.964;2023-02-16T07:02:32;99748.06;;;2.12;85.17
57000;BME280;42891;50.006;21.964;2023-02-16T07:06:33;99753.81;;;2.20;84.84
57000;BME280;42891;50.006;21.964;2023-02-16T07:10:33;99739.72;;;2.03;85.14
57000;BME280;42891;50.006;21.964;2023-02-16T07:14:33;99736.53;;;2.17;84.68
57000;BME280;42891;50.006;21.964;2023-02-16T07:18:34;99750.09;;;2.46;84.18
57000;BME280;42891;50.006;21.964;2023-02-16T07:22:35;99755.38;;;2.45;83.30
57000;BME280;42891;50.006;21.964;2023-02-16T07:26:35;99755.31;;;2.46;82.89
57000;BME280;42891;50.006;21.964;2023-02-16T07:30:37;99737.97;;;2.45;82.44
57000;BME280;42891;50.006;21.964;2023-02-16T07:34:38;99739.91;;;2.61;81.96
57000;BME280;42891;50.006;21.964;2023-02-16T07:38:39;99735.41;;;2.64;81.16
57000;BME280;42891;50.006;21.964;2023-02-16T07:42:42;99743.47;;;2.79;81.07
57000;BME280;42891;50.006;21.964;2023-02-16T07:46:42;99752.22;;;2.78;81.19
57000;BME280;42891;50.006;21.964;2023-02-16T07:50:42;99751.03;;;2.85;80.62
57000;BME280;42891;50.006;21.964;2023-02-16T07:54:43;99730.03;;;2.88;80.08
57000;BME280;42891;50.006;21.964;2023-02-16T07:58:43;99754.91;;;2.95;79.51
57000;BME280;42891;50.006;21.964;2023-02-16T08:02:43;99730.53;;;2.96;79.63
57000;BME280;42891;50.006;21.964;2023-02-16T08:06:43;99726.94;;;2.99;78.83
57000;BME280;42891;50.006;21.964;2023-02-16T08:10:46;99724.25;;;3.00;78.68
57000;BME280;42891;50.006;21.964;2023-02-16T08:14:46;99755.84;;;3.32;78.04
57000;BME280;42891;50.006;21.964;2023-02-16T08:18:47;99746.88;;;3.38;77.57
57000;BME280;42891;50.006;21.964;2023-02-16T08:22:47;99740.53;;;3.44;77.89
57000;BME280;42891;50.006;21.964;2023-02-16T08:26:48;99756.13;;;3.45;76.87
57000;BME280;42891;50.006;21.964;2023-02-16T08:30:48;99734.97;;;3.51;76.56
57000;BME280;42891;50.006;21.964;2023-02-16T08:34:49;99743.53;;;3.53;76.33
57000;BME280;42891;50.006;21.964;2023-02-16T08:38:50;99719.88;;;3.56;76.58
57000;BME280;42891;50.006;21.964;2023-02-16T08:42:53;99735.94;;;3.49;76.58
57000;BME280;42891;50.006;21.964;2023-02-16T08:46:54;99758.88;;;3.61;76.23
57000;BME280;42891;50.006;21.964;2023-02-16T08:50:55;99751.94;;;3.60;76.32
57000;BME280;42891;50.006;21.964;2023-02-16T08:54:55;99746.22;;;3.71;76.62
57000;BME280;42891;50.006;21.964;2023-02-16T08:58:56;99746.13;;;3.90;76.53
57000;BME280;42891;50.006;21.964;2023-02-16T09:02:57;99765.75;;;4.16;76.35
57000;BME280;42891;50.006;21.964;2023-02-16T09:06:59;99755.00;;;4.05;74.90
57000;BME280;42891;50.006;21.964;2023-02-16T09:11:21;99726.25;;;4.05;75.00
57000;BME280;42891;50.006;21.964;2023-02-16T09:15:21;99744.53;;;4.05;74.41
57000;BME280;42891;50.006;21.964;2023-02-16T09:19:22;99724.19;;;4.29;73.54
57000;BME280;42891;50.006;21.964;2023-02-16T09:23:23;99738.25;;;4.26;72.59
57000;BME280;42891;50.006;21.964;2023-02-16T09:27:25;99732.25;;;4.24;72.56
57000;BME280;42891;50.006;21.964;2023-02-16T09:31:31;99752.63;;;4.35;72.54
57000;BME280;42891;50.006;21.964;2023-02-16T09:35:33;99736.31;;;4.48;72.17
57000;BME280;42891;50.006;21.964;2023-02-16T09:39:33;99750.00;;;4.53;71.22
57000;BME280;42891;50.006;21.964;2023-02-16T09:43:55;99754.16;;;4.57;71.48
57000;BME280;42891;50.006;21.964;2023-02-16T09:47:56;99744.34;;;4.60;71.24
57000;BME280;42891;50.006;21.964;2023-02-16T09:52:09;99744.34;;;4.78;70.80
57000;BME280;42891;50.006;21.964;2023-02-16T09:56:17;99701.63;;;4.77;70.28
57000;BME280;42891;50.006;21.964;2023-02-16T10:04:29;99740.72;;;4.97;69.28
57000;BME280;42891;50.006;21.964;2023-02-16T10:08:41;99708.41;;;4.98;68.57
57000;BME280;42891;50.006;21.964;2023-02-16T10:13:11;99729.28;;;5.15;68.75
57000;BME280;42891;50.006;21.964;2023-02-16T10:17:28;99739.75;;;5.31;68.38
57000;BME280;42891;50.006;21.964;2023-02-16T10:21:31;99720.81;;;5.26;68.39
57000;BME280;42891;50.006;21.964;2023-02-16T10:25:40;99710.03;;;5.32;67.70
57000;BME280;42891;50.006;21.964;2023-02-16T10:29:43;99724.19;;;5.60;67.64
57000;BME280;42891;50.006;21.964;2023-02-16T10:34:03;99726.53;;;5.80;66.66
57000;BME280;42891;50.006;21.964;2023-02-16T10:38:16;99701.06;;;5.83;65.64
57000;BME280;42891;50.006;21.964;2023-02-16T10:46:35;99716.44;;;6.05;64.69
57000;BME280;42891;50.006;21.964;2023-02-16T10:50:56;99711.88;;;6.08;63.45
57000;BME280;42891;50.006;21.964;2023-02-16T10:54:57;99689.50;;;6.17;63.71
57000;BME280;42891;50.006;21.964;2023-02-16T10:58:59;99697.66;;;6.27;63.66
57000;BME280;42891;50.006;21.964;2023-02-16T11:03:09;99689.81;;;6.41;62.02
57000;BME280;42891;50.006;21.964;2023-02-16T11:07:12;99706.69;;;6.37;62.07
57000;BME280;42891;50.006;21.964;2023-02-16T11:11:13;99694.13;;;6.42;61.93
57000;BME280;42891;50.006;21.964;2023-02-16T11:19:21;99700.69;;;6.64;60.73
57000;BME280;42891;50.006;21.964;2023-02-16T11:23:30;99696.38;;;6.77;61.34
57000;BME280;42891;50.006;21.964;2023-02-16T11:27:31;99680.06;;;6.87;60.94
57000;BME280;42891;50.006;21.964;2023-02-16T11:31:38;99677.34;;;6.88;60.36
57000;BME280;42891;50.006;21.964;2023-02-16T11:35:41;99679.94;;;7.03;60.67
57000;BME280;42891;50.006;21.964;2023-02-16T11:39:54;99660.72;;;7.02;61.00
57000;BME280;42891;50.006;21.964;2023-02-16T11:43:55;99680.56;;;7.21;60.22
57000;BME280;42891;50.006;21.964;2023-02-16T11:52:00;99663.31;;;7.71;58.57
57000;BME280;42891;50.006;21.964;2023-02-16T12:00:22;99666.84;;;9.49;52.72
57000;BME280;42891;50.006;21.964;2023-02-16T12:04:36;99621.72;;;9.29;51.92
57000;BME280;42891;50.006;21.964;2023-02-16T12:13:34;99651.78;;;10.56;49.63
57000;BME280;42891;50.006;21.964;2023-02-16T12:22:08;99631.84;;;11.30;48.17
57000;BME280;42891;50.006;21.964;2023-02-16T12:26:43;99632.59;;;11.32;46.03
57000;BME280;42891;50.006;21.964;2023-02-16T12:30:55;99618.19;;;10.58;48.28
57000;BME280;42891;50.006;21.964;2023-02-16T12:48:50;99587.91;;;10.28;48.17
57000;BME280;42891;50.006;21.964;2023-02-16T12:52:56;99595.22;;;10.13;48.22
57000;BME280;42891;50.006;21.964;2023-02-16T12:57:02;99558.13;;;9.92;49.00
57000;BME280;42891;50.006;21.964;2023-02-16T13:01:09;99583.38;;;10.19;48.80
57000;BME280;42891;50.006;21.964;2023-02-16T13:05:20;99569.16;;;9.75;49.62
57000;BME280;42891;50.006;21.964;2023-02-16T13:13:46;99564.28;;;10.04;49.04
57000;BME280;42891;50.006;21.964;2023-02-16T13:22:02;99568.28;;;9.63;49.94
57000;BME280;42891;50.006;21.964;2023-02-16T13:31:12;99564.97;;;9.48;51.34
57000;BME280;42891;50.006;21.964;2023-02-16T13:39:45;99546.47;;;9.61;50.87
57000;BME280;42891;50.006;21.964;2023-02-16T13:44:19;99538.09;;;9.31;51.79
57000;BME280;42891;50.006;21.964;2023-02-16T13:48:29;99548.09;;;9.50;51.55
57000;BME280;42891;50.006;21.964;2023-02-16T13:52:35;99528.06;;;9.01;52.64
57000;BME280;42891;50.006;21.964;2023-02-16T13:56:36;99536.66;;;9.03;52.87
57000;BME280;42891;50.006;21.964;2023-02-16T14:00:44;99535.19;;;9.70;51.93
57000;BME280;42891;50.006;21.964;2023-02-16T14:13:11;99535.69;;;8.93;54.01
57000;BME280;42891;50.006;21.964;2023-02-16T14:21:36;99524.66;;;9.23;54.11
57000;BME280;42891;50.006;21.964;2023-02-16T14:25:38;99530.34;;;9.06;54.29
57000;BME280;42891;50.006;21.964;2023-02-16T14:29:52;99540.25;;;8.78;54.68
57000;BME280;42891;50.006;21.964;2023-02-16T14:34:05;99531.16;;;8.58;55.06
57000;BME280;42891;50.006;21.964;2023-02-16T14:38:22;99542.66;;;9.29;53.01
57000;BME280;42891;50.006;21.964;2023-02-16T14:42:33;99538.31;;;8.56;55.08
57000;BME280;42891;50.006;21.964;2023-02-16T14:47:08;99542.19;;;8.63;54.75
57000;BME280;42891;50.006;21.964;2023-02-16T15:04:30;99546.50;;;7.22;59.61
57000;BME280;42891;50.006;21.964;2023-02-16T15:08:35;99531.88;;;6.78;61.03
57000;BME280;42891;50.006;21.964;2023-02-16T15:12:37;99516.50;;;6.44;61.97
57000;BME280;42891;50.006;21.964;2023-02-16T15:16:39;99534.44;;;6.23;63.23
57000;BME280;42891;50.006;21.964;2023-02-16T15:20:42;99533.28;;;6.13;63.70
57000;BME280;42891;50.006;21.964;2023-02-16T15:24:43;99538.06;;;6.21;64.02
57000;BME280;42891;50.006;21.964;2023-02-16T15:28:53;99499.91;;;5.72;65.07
57000;BME280;42891;50.006;21.964;2023-02-16T15:33:01;99543.72;;;5.70;65.36
57000;BME280;42891;50.006;21.964;2023-02-16T15:37:21;99535.81;;;5.41;66.81
57000;BME280;42891;50.006;21.964;2023-02-16T15:41:29;99494.81;;;4.95;67.90
57000;BME280;42891;50.006;21.964;2023-02-16T15:45:34;99525.00;;;5.17;68.28
57000;BME280;42891;50.006;21.964;2023-02-16T15:49:36;99525.75;;;5.19;68.60
57000;BME280;42891;50.006;21.964;2023-02-16T15:54:04;99524.75;;;4.75;70.17
57000;BME280;42891;50.006;21.964;2023-02-16T15:58:06;99484.91;;;4.70;70.19
57000;BME280;42891;50.006;21.964;2023-02-16T16:02:10;99522.63;;;4.66;70.75
57000;BME280;42891;50.006;21.964;2023-02-16T16:06:12;99522.22;;;4.57;71.48
57000;BME280;42891;50.006;21.964;2023-02-16T16:10:17;99524.81;;;4.57;71.28
57000;BME280;42891;50.006;21.964;2023-02-16T16:14:20;99513.50;;;4.73;70.68
57000;BME280;42891;50.006;21.964;2023-02-16T16:18:43;99523.72;;;4.61;71.04
57000;BME280;42891;50.006;21.964;2023-02-16T16:22:44;99513.78;;;4.68;71.40
57000;BME280;42891;50.006;21.964;2023-02-16T16:26:56;99528.25;;;4.58;71.24
57000;BME280;42891;50.006;21.964;2023-02-16T16:35:33;99545.81;;;4.88;70.47
57000;BME280;42891;50.006;21.964;2023-02-16T16:39:36;99541.00;;;4.80;70.16
57000;BME280;42891;50.006;21.964;2023-02-16T16:43:51;99545.31;;;4.81;70.45
57000;BME280;42891;50.006;21.964;2023-02-16T16:47:52;99538.81;;;4.72;70.75
57000;BME280;42891;50.006;21.964;2023-02-16T16:51:52;99540.88;;;4.51;71.37
57000;BME280;42891;50.006;21.964;2023-02-16T16:55:53;99546.16;;;4.50;71.79
57000;BME280;42891;50.006;21.964;2023-02-16T16:59:53;99540.97;;;4.16;72.71
57000;BME280;42891;50.006;21.964;2023-02-16T17:03:53;99522.03;;;4.13;72.86
57000;BME280;42891;50.006;21.964;2023-02-16T17:07:54;99533.50;;;3.92;73.72
57000;BME280;42891;50.006;21.964;2023-02-16T17:11:54;99550.19;;;3.90;74.11
57000;BME280;42891;50.006;21.964;2023-02-16T17:16:09;99541.69;;;3.86;75.04
57000;BME280;42891;50.006;21.964;2023-02-16T17:20:20;99560.06;;;3.85;75.38
57000;BME280;42891;50.006;21.964;2023-02-16T17:24:20;99556.75;;;3.81;74.82
57000;BME280;42891;50.006;21.964;2023-02-16T17:28:21;99548.09;;;3.63;75.65
57000;BME280;42891;50.006;21.964;2023-02-16T17:32:21;99537.19;;;3.72;75.74
57000;BME280;42891;50.006;21.964;2023-02-16T17:36:24;99519.34;;;3.63;75.34
57000;BME280;42891;50.006;21.964;2023-02-16T17:40:25;99554.13;;;3.64;76.30
57000;BME280;42891;50.006;21.964;2023-02-16T17:44:25;99548.88;;;3.65;75.81
57000;BME280;42891;50.006;21.964;2023-02-16T17:48:27;99534.78;;;3.68;75.92
57000;BME280;42891;50.006;21.964;2023-02-16T17:52:29;99543.09;;;3.58;76.00
57000;BME280;42891;50.006;21.964;2023-02-16T17:56:30;99542.66;;;3.33;77.24
57000;BME280;42891;50.006;21.964;2023-02-16T18:00:36;99532.38;;;3.30;77.05
57000;BME280;42891;50.006;21.964;2023-02-16T18:04:37;99537.81;;;3.25;77.57
57000;BME280;42891;50.006;21.964;2023-02-16T18:08:40;99535.50;;;3.54;76.32
57000;BME280;42891;50.006;21.964;2023-02-16T18:12:40;99536.47;;;3.86;75.43
57000;BME280;42891;50.006;21.964;2023-02-16T18:16:41;99548.72;;;3.51;76.60
57000;BME280;42891;50.006;21.964;2023-02-16T18:20:42;99537.66;;;3.28;77.46
57000;BME280;42891;50.006;21.964;2023-02-16T18:24:42;99545.78;;;3.39;77.53
57000;BME280;42891;50.006;21.964;2023-02-16T18:28:43;99547.72;;;3.53;76.99
57000;BME280;42891;50.006;21.964;2023-02-16T18:32:44;99527.59;;;3.20;78.19
57000;BME280;42891;50.006;21.964;2023-02-16T18:36:44;99541.41;;;3.40;77.88
57000;BME280;42891;50.006;21.964;2023-02-16T18:40:45;99525.59;;;3.26;77.78
57000;BME280;42891;50.006;21.964;2023-02-16T18:44:45;99535.50;;;3.36;77.92
57000;BME280;42891;50.006;21.964;2023-02-16T18:48:48;99529.91;;;3.27;78.62
57000;BME280;42891;50.006;21.964;2023-02-16T18:52:48;99542.72;;;3.49;77.99
57000;BME280;42891;50.006;21.964;2023-02-16T18:56:48;99549.94;;;3.26;78.26
57000;BME280;42891;50.006;21.964;2023-02-16T19:00:48;99537.91;;;3.23;78.83
57000;BME280;42891;50.006;21.964;2023-02-16T19:04:49;99534.25;;;3.26;78.81
57000;BME280;42891;50.006;21.964;2023-02-16T19:08:50;99517.06;;;3.04;79.37
57000;BME280;42891;50.006;21.964;2023-02-16T19:12:50;99536.09;;;3.06;79.63
57000;BME280;42891;50.006;21.964;2023-02-16T19:16:51;99536.38;;;2.83;80.88
57000;BME280;42891;50.006;21.964;2023-02-16T19:20:51;99513.13;;;2.78;80.37
57000;BME280;42891;50.006;21.964;2023-02-16T19:24:52;99541.22;;;2.90;80.58
57000;BME280;42891;50.006;21.964;2023-02-16T19:28:52;99535.81;;;2.76;80.86
57000;BME280;42891;50.006;21.964;2023-02-16T19:32:54;99536.19;;;3.05;79.92
57000;BME280;42891;50.006;21.964;2023-02-16T19:36:55;99535.84;;;2.94;80.05
57000;BME280;42891;50.006;21.964;2023-02-16T19:40:55;99531.88;;;2.86;80.81
57000;BME280;42891;50.006;21.964;2023-02-16T19:44:55;99534.78;;;2.98;80.71
57000;BME280;42891;50.006;21.964;2023-02-16T19:48:57;99538.94;;;3.02;80.63
57000;BME280;42891;50.006;21.964;2023-02-16T19:52:57;99531.31;;;2.80;80.90
57000;BME280;42891;50.006;21.964;2023-02-16T19:56:58;99523.13;;;2.87;80.70
57000;BME280;42891;50.006;21.964;2023-02-16T20:01:04;99536.66;;;2.96;80.42
57000;BME280;42891;50.006;21.964;2023-02-16T20:05:05;99549.69;;;3.13;80.44
57000;BME280;42891;50.006;21.964;2023-02-16T20:09:07;99542.06;;;2.91;81.26
57000;BME280;42891;50.006;21.964;2023-02-16T20:13:08;99533.03;;;2.62;82.32
57000;BME280;42891;50.006;21.964;2023-02-16T20:17:08;99534.28;;;2.72;82.47
57000;BME280;42891;50.006;21.964;2023-02-16T20:21:21;99528.69;;;2.80;81.97
57000;BME280;42891;50.006;21.964;2023-02-16T20:25:21;99536.69;;;2.58;82.42
57000;BME280;42891;50.006;21.964;2023-02-16T20:29:21;99530.06;;;2.69;82.38
57000;BME280;42891;50.006;21.964;2023-02-16T20:33:22;99530.72;;;2.55;83.03
57000;BME280;42891;50.006;21.964;2023-02-16T20:37:23;99532.31;;;2.58;82.98
57000;BME280;42891;50.006;21.964;2023-02-16T20:41:23;99525.13;;;2.63;83.05
57000;BME280;42891;50.006;21.964;2023-02-16T20:45:24;99537.59;;;2.56;82.59
57000;BME280;42891;50.006;21.964;2023-02-16T20:49:24;99541.44;;;2.86;82.01
57000;BME280;42891;50.006;21.964;2023-02-16T20:53:25;99533.09;;;2.79;81.76
57000;BME280;42891;50.006;21.964;2023-02-16T20:57:26;99547.19;;;2.93;81.75
57000;BME280;42891;50.006;21.964;2023-02-16T21:01:38;99509.50;;;2.44;82.60
57000;BME280;42891;50.006;21.964;2023-02-16T21:05:39;99541.41;;;2.68;82.46
57000;BME280;42891;50.006;21.964;2023-02-16T21:09:39;99545.06;;;2.64;82.72
57000;BME280;42891;50.006;21.964;2023-02-16T21:13:40;99522.69;;;2.60;82.40
57000;BME280;42891;50.006;21.964;2023-02-16T21:17:41;99540.94;;;2.60;83.36
57000;BME280;42891;50.006;21.964;2023-02-16T21:21:41;99524.22;;;2.45;82.95
57000;BME280;42891;50.006;21.964;2023-02-16T21:25:41;99532.69;;;2.50;82.52
57000;BME280;42891;50.006;21.964;2023-02-16T21:29:42;99505.97;;;2.45;82.67
57000;BME280;42891;50.006;21.964;2023-02-16T21:33:42;99529.19;;;2.51;82.72
57000;BME280;42891;50.006;21.964;2023-02-16T21:37:43;99538.09;;;2.65;82.50
57000;BME280;42891;50.006;21.964;2023-02-16T21:41:43;99516.00;;;2.54;81.74
57000;BME280;42891;50.006;21.964;2023-02-16T21:45:44;99524.50;;;2.58;81.68
57000;BME280;42891;50.006;21.964;2023-02-16T21:49:44;99524.28;;;2.63;81.77
57000;BME280;42891;50.006;21.964;2023-02-16T21:53:45;99497.19;;;2.29;82.94
57000;BME280;42891;50.006;21.964;2023-02-16T21:57:46;99510.72;;;2.37;83.19
57000;BME280;42891;50.006;21.964;2023-02-16T22:01:49;99512.97;;;2.26;83.95
57000;BME280;42891;50.006;21.964;2023-02-16T22:05:50;99495.50;;;2.09;83.84
57000;BME280;42891;50.006;21.964;2023-02-16T22:09:50;99510.16;;;2.30;83.65
57000;BME280;42891;50.006;21.964;2023-02-16T22:13:55;99507.34;;;2.35;83.12
57000;BME280;42891;50.006;21.964;2023-02-16T22:17:56;99519.09;;;2.25;83.60
57000;BME280;42891;50.006;21.964;2023-02-16T22:21:56;99466.91;;;1.88;83.81
57000;BME280;42891;50.006;21.964;2023-02-16T22:25:57;99506.28;;;2.20;83.80
57000;BME280;42891;50.006;21.964;2023-02-16T22:29:57;99512.69;;;2.13;84.58
57000;BME280;42891;50.006;21.964;2023-02-16T22:33:59;99498.53;;;2.18;84.18
57000;BME280;42891;50.006;21.964;2023-02-16T22:38:00;99498.94;;;2.09;84.12
57000;BME280;42891;50.006;21.964;2023-02-16T22:42:00;99500.88;;;2.06;84.83
57000;BME280;42891;50.006;21.964;2023-02-16T22:46:11;99504.38;;;2.04;85.28
57000;BME280;42891;50.006;21.964;2023-02-16T22:50:12;99496.75;;;2.00;85.02
57000;BME280;42891;50.006;21.964;2023-02-16T22:54:12;99494.59;;;2.10;85.05
57000;BME280;42891;50.006;21.964;2023-02-16T22:58:13;99491.94;;;2.11;84.53
57000;BME280;42891;50.006;21.964;2023-02-16T23:02:13;99491.63;;;1.98;85.59
57000;BME280;42891;50.006;21.964;2023-02-16T23:06:16;99492.25;;;2.03;85.21
57000;BME280;42891;50.006;21.964;2023-02-16T23:10:17;99501.06;;;2.20;84.21
57000;BME280;42891;50.006;21.964;2023-02-16T23:14:18;99502.63;;;2.24;84.13
57000;BME280;42891;50.006;21.964;2023-02-16T23:18:19;99488.38;;;2.12;83.63
57000;BME280;42891;50.006;21.964;2023-02-16T23:22:20;99482.03;;;2.18;83.79
57000;BME280;42891;50.006;21.964;2023-02-16T23:26:22;99500.44;;;2.34;83.29